Time;durP1;ratioP1;P1;durP2;ratioP2;P2;SDS_P1;SDS_P2;PMS_P1;PMS_P2;Temp;Humidity;BMP_temperature;BMP_pressure;BME280_temperature;BME280_humidity;BME280_pressure;Samples;Min_cycle;Max_cycle;Signal;HPM_P1;HPM_P2
2022/09/05 00:02:34;;;;;;;2.53;2.33;;;20.10;70.10;;;;;;5083476;28;20429;-72
2022/09/05 00:05:32;;;;;;;2.40;2.20;;;20.10;70.40;;;;;;5080656;28;20440;-72
2022/09/05 00:08:06;;;;;;;2.83;2.37;;;20.00;70.20;;;;;;5074550;28;20435;-72
2022/09/05 00:10:42;;;;;;;2.47;2.30;;;20.00;69.90;;;;;;5072228;28;20431;-72
2022/09/05 00:13:17;;;;;;;2.70;2.38;;;20.00;70.10;;;;;;5075692;28;20528;-72
2022/09/05 00:15:57;;;;;;;2.60;2.40;;;20.00;70.50;;;;;;5074041;28;20462;-72
2022/09/05 00:18:52;;;;;;;2.80;2.40;;;19.90;70.80;;;;;;5075373;28;20886;-72
2022/09/05 00:21:35;;;;;;;2.70;2.50;;;19.90;71.00;;;;;;5075755;28;20752;-72
2022/09/05 00:24:21;;;;;;;2.60;2.40;;;19.80;71.20;;;;;;5072973;28;20463;-72
2022/09/05 00:26:56;;;;;;;2.87;2.57;;;19.80;71.20;;;;;;5073228;28;20467;-72
2022/09/05 00:29:49;;;;;;;2.70;2.50;;;19.80;71.40;;;;;;5083394;28;20441;-72
2022/09/05 00:32:23;;;;;;;2.63;2.42;;;19.80;71.70;;;;;;5084348;28;20548;-72
2022/09/05 00:35:12;;;;;;;2.70;2.50;;;19.70;71.60;;;;;;5084065;28;20428;-72
2022/09/05 00:37:43;;;;;;;2.55;2.35;;;19.70;71.70;;;;;;5082349;28;20430;-72
2022/09/05 00:40:17;;;;;;;2.80;2.40;;;19.70;72.20;;;;;;5069865;28;20411;-72
2022/09/05 00:42:47;;;;;;;2.92;2.70;;;19.70;72.40;;;;;;5083332;28;20407;-72
2022/09/05 00:45:23;;;;;;;2.80;2.60;;;19.60;72.30;;;;;;5079152;28;20427;-72
2022/09/05 00:47:58;;;;;;;2.80;2.50;;;19.60;72.30;;;;;;5084346;28;20910;-72
2022/09/05 00:50:33;;;;;;;3.90;2.78;;;19.60;74.00;;;;;;5081922;28;20427;-72
2022/09/05 00:53:06;;;;;;;2.70;2.50;;;19.60;72.70;;;;;;5079415;28;20425;-72
2022/09/05 00:55:40;;;;;;;2.60;2.40;;;19.50;72.60;;;;;;5072350;28;20419;-72
2022/09/05 00:58:35;;;;;;;2.80;2.60;;;19.50;72.70;;;;;;5075854;28;20425;-72
2022/09/05 01:01:07;;;;;;;3.33;2.80;;;19.50;73.20;;;;;;5073810;28;20479;-72
2022/09/05 01:03:47;;;;;;;3.20;2.90;;;19.40;73.10;;;;;;5081738;28;20505;-72
2022/09/05 01:06:26;;;;;;;3.38;2.80;;;19.40;73.20;;;;;;5076382;28;20444;-72
2022/09/05 01:09:17;;;;;;;2.90;2.70;;;19.40;74.00;;;;;;5070924;28;20515;-72
2022/09/05 01:12:07;;;;;;;3.47;2.60;;;19.40;73.50;;;;;;5084037;28;20414;-72
2022/09/05 01:14:55;;;;;;;2.90;2.70;;;19.30;73.90;;;;;;5074675;28;20440;-72
2022/09/05 01:17:44;;;;;;;3.08;2.60;;;19.30;73.50;;;;;;5072764;28;20791;-72
2022/09/05 01:20:27;;;;;;;2.75;2.55;;;19.30;74.10;;;;;;5080406;28;20539;-72
2022/09/05 01:23:11;;;;;;;3.60;2.87;;;19.30;74.20;;;;;;5079124;28;20435;-72
2022/09/05 01:25:51;;;;;;;2.90;2.70;;;19.30;74.40;;;;;;5067447;28;20874;-72
2022/09/05 01:28:25;;;;;;;2.60;2.40;;;19.30;74.70;;;;;;5121320;22;20947;-75
2022/09/05 01:30:57;;;;;;;2.80;2.60;;;19.20;74.40;;;;;;5103091;28;20414;-73
2022/09/05 01:33:33;;;;;;;3.00;2.50;;;19.20;75.10;;;;;;5111214;28;20424;-72
2022/09/05 01:36:22;;;;;;;3.00;2.80;;;19.20;74.40;;;;;;5111342;28;20443;-73
2022/09/05 01:39:01;;;;;;;3.40;3.20;;;19.20;75.30;;;;;;5085454;28;20434;-73
2022/09/05 01:41:36;;;;;;;3.10;2.80;;;19.10;75.10;;;;;;5089636;28;20781;-73
2022/09/05 01:44:14;;;;;;;3.00;2.80;;;19.10;75.40;;;;;;5090156;28;20409;-74
2022/09/05 01:46:51;;;;;;;2.83;2.63;;;19.10;75.50;;;;;;5086440;28;20428;-73
2022/09/05 01:49:28;;;;;;;2.83;2.63;;;19.10;75.50;;;;;;5088035;28;20421;-74
2022/09/05 01:52:16;;;;;;;3.40;3.10;;;19.10;75.70;;;;;;5087693;28;20504;-74
2022/09/05 01:54:56;;;;;;;3.20;2.90;;;19.00;75.80;;;;;;5078969;28;20415;-73
2022/09/05 01:57:35;;;;;;;3.40;3.10;;;19.00;76.00;;;;;;5084813;28;21098;-74
2022/09/05 02:00:10;;;;;;;3.40;3.10;;;19.00;76.00;;;;;;5091039;28;20418;-73
2022/09/05 02:02:44;;;;;;;3.15;2.90;;;18.90;76.20;;;;;;5079909;28;21048;-74
2022/09/05 02:05:19;;;;;;;3.10;2.90;;;18.90;76.50;;;;;;5084012;28;20410;-75
2022/09/05 02:08:18;;;;;;;3.00;2.80;;;18.90;76.50;;;;;;5088963;28;21094;-75
2022/09/05 02:11:01;;;;;;;3.20;2.85;;;18.90;76.60;;;;;;5076197;28;20422;-73
2022/09/05 02:13:45;;;;;;;3.10;2.90;;;18.90;76.80;;;;;;5090752;28;20432;-74
2022/09/05 02:16:22;;;;;;;3.25;2.95;;;18.80;76.90;;;;;;5089628;28;20520;-73
2022/09/05 02:18:55;;;;;;;3.10;2.80;;;18.80;77.10;;;;;;5083371;28;20419;-74
2022/09/05 02:21:32;;;;;;;3.40;3.20;;;18.80;76.90;;;;;;5086194;28;20433;-72
2022/09/05 02:24:11;;;;;;;3.20;3.00;;;18.80;77.10;;;;;;5083055;28;20421;-74
2022/09/05 02:26:50;;;;;;;3.08;2.88;;;18.80;77.00;;;;;;5072704;28;20419;-73
2022/09/05 02:29:22;;;;;;;3.30;3.00;;;18.70;76.80;;;;;;5089780;28;20414;-73
2022/09/05 02:31:56;;;;;;;3.40;3.10;;;18.70;76.70;;;;;;5085484;28;20421;-74
2022/09/05 02:34:30;;;;;;;3.60;3.30;;;18.70;76.50;;;;;;5087098;28;20429;-74
2022/09/05 02:37:07;;;;;;;3.25;3.05;;;18.70;76.00;;;;;;5079269;28;20962;-74
2022/09/05 02:39:39;;;;;;;3.40;3.10;;;18.70;76.20;;;;;;5078264;28;20824;-73
2022/09/05 02:42:15;;;;;;;3.30;3.10;;;18.60;76.50;;;;;;5079005;28;20423;-72
2022/09/05 02:44:53;;;;;;;3.10;2.90;;;18.60;76.20;;;;;;5085549;28;20911;-72
2022/09/05 02:47:26;;;;;;;3.22;2.92;;;18.60;76.40;;;;;;5089995;28;20410;-74
2022/09/05 02:50:05;;;;;;;3.22;2.92;;;18.60;76.40;;;;;;5087795;28;20426;-75
2022/09/05 02:52:34;;;;;;;4.10;3.10;;;18.60;76.70;;;;;;5082005;28;20429;-75
2022/09/05 02:55:06;;;;;;;3.40;3.10;;;18.50;76.40;;;;;;5091435;28;20519;-73
2022/09/05 02:57:39;;;;;;;2.90;2.70;;;18.50;76.40;;;;;;5102790;28;20432;-72
2022/09/05 03:00:11;;;;;;;2.90;2.70;;;18.50;76.60;;;;;;5095728;28;20410;-72
2022/09/05 03:02:57;;;;;;;3.20;2.90;;;18.50;77.60;;;;;;5093452;28;20438;-71
2022/09/05 03:05:30;;;;;;;3.22;3.00;;;18.50;76.90;;;;;;5085269;28;20426;-72
2022/09/05 03:08:15;;;;;;;3.50;3.20;;;18.60;76.30;;;;;;5087847;28;20435;-73
2022/09/05 03:11:25;;;;;;;3.20;2.90;;;18.60;76.40;;;;;;5080264;28;20432;-73
2022/09/05 03:14:35;;;;;;;3.10;2.90;;;18.60;76.40;;;;;;5090427;28;20426;-72
2022/09/05 03:17:32;;;;;;;3.50;3.20;;;18.50;76.70;;;;;;5091567;28;20402;-75
2022/09/05 03:20:50;;;;;;;3.40;3.07;;;18.50;76.60;;;;;;5089554;28;20464;-73
2022/09/05 03:23:58;;;;;;;3.20;3.00;;;18.50;76.10;;;;;;5106416;28;20475;-71
2022/09/05 03:26:57;;;;;;;3.40;3.10;;;18.50;76.50;;;;;;5088382;28;20513;-73
2022/09/05 03:30:00;;;;;;;3.50;3.20;;;18.40;77.30;;;;;;5096834;28;20424;-73
2022/09/05 03:33:03;;;;;;;3.65;3.35;;;18.50;76.40;;;;;;5082095;28;20414;-73
2022/09/05 03:36:09;;;;;;;3.30;3.10;;;18.40;76.60;;;;;;5072554;28;20422;-74
2022/09/05 03:39:21;;;;;;;3.33;3.13;;;18.50;76.50;;;;;;5085537;28;20799;-74
2022/09/05 03:42:10;;;;;;;4.00;3.70;;;18.40;76.40;;;;;;4999245;28;20814;-75
2022/09/05 03:44:52;;;;;;;3.85;3.42;;;18.40;76.70;;;;;;5076621;28;20419;-75
2022/09/05 03:47:46;;;;;;;3.50;3.20;;;18.40;77.20;;;;;;5086112;28;20410;-73
2022/09/05 03:50:29;;;;;;;3.90;3.60;;;18.40;77.30;;;;;;5089356;28;20424;-73
2022/09/05 03:53:22;;;;;;;3.70;3.40;;;18.30;77.50;;;;;;5087170;28;21072;-73
2022/09/05 03:56:04;;;;;;;4.10;3.70;;;18.30;77.50;;;;;;5076401;28;20424;-74
2022/09/05 03:58:49;;;;;;;3.85;3.40;;;18.30;77.50;;;;;;5085688;28;20422;-75
2022/09/05 04:01:22;;;;;;;3.58;3.28;;;18.30;77.90;;;;;;5083792;28;20421;-73
2022/09/05 04:03:53;;;;;;;3.67;3.28;;;18.30;77.60;;;;;;5090173;28;20421;-74
2022/09/05 04:06:26;;;;;;;3.60;3.30;;;18.30;77.90;;;;;;5087393;28;20950;-74
2022/09/05 04:09:03;;;;;;;4.33;3.60;;;18.20;78.10;;;;;;5084639;28;20490;-73
2022/09/05 04:11:36;;;;;;;3.40;3.10;;;18.20;78.10;;;;;;5077353;28;20421;-72
2022/09/05 04:14:07;;;;;;;3.50;3.20;;;18.20;78.50;;;;;;5085709;28;20429;-73
2022/09/05 04:16:48;;;;;;;3.53;3.33;;;18.20;78.60;;;;;;5075661;28;20821;-73
2022/09/05 04:19:21;;;;;;;3.80;3.50;;;18.20;78.90;;;;;;5085517;28;20417;-72
2022/09/05 04:21:55;;;;;;;3.97;3.67;;;18.20;78.80;;;;;;5069860;28;20408;-72
2022/09/05 04:24:30;;;;;;;3.70;3.40;;;18.20;79.50;;;;;;5075416;28;20435;-73
2022/09/05 04:27:15;;;;;;;3.70;3.40;;;18.10;79.00;;;;;;5082881;28;20938;-74
2022/09/05 04:29:57;;;;;;;3.60;3.30;;;18.10;79.20;;;;;;5082821;28;20452;-72
2022/09/05 04:32:34;;;;;;;3.95;3.60;;;18.10;79.10;;;;;;5088074;28;20926;-75
2022/09/05 04:35:22;;;;;;;3.60;3.30;;;18.10;79.10;;;;;;5088898;28;20425;-72
2022/09/05 04:37:55;;;;;;;3.60;3.30;;;18.10;79.00;;;;;;5086506;28;20851;-73
2022/09/05 04:40:49;;;;;;;3.70;3.40;;;18.10;79.00;;;;;;5076324;28;20454;-67
2022/09/05 04:43:25;;;;;;;3.50;3.22;;;18.00;78.70;;;;;;5057514;28;20414;-65
2022/09/05 04:46:00;;;;;;;4.10;3.80;;;18.00;78.60;;;;;;5086974;28;20430;-65
2022/09/05 04:48:34;;;;;;;3.40;3.10;;;18.00;78.70;;;;;;5071516;28;20424;-66
2022/09/05 04:51:08;;;;;;;4.72;3.70;;;18.00;79.30;;;;;;5088182;28;20424;-66
2022/09/05 04:54:05;;;;;;;4.00;3.70;;;17.90;79.50;;;;;;5081924;28;20961;-65
2022/09/05 04:56:37;;;;;;;5.15;3.80;;;17.90;79.90;;;;;;5075953;28;20425;-65
2022/09/05 04:59:11;;;;;;;3.75;3.45;;;17.80;79.90;;;;;;5094814;28;20513;-65
2022/09/05 05:01:44;;;;;;;3.90;3.60;;;17.80;79.90;;;;;;5084096;28;20432;-66
2022/09/05 05:04:15;;;;;;;4.37;4.07;;;17.80;80.30;;;;;;5086005;28;20417;-65
2022/09/05 05:06:53;;;;;;;4.53;4.13;;;17.70;80.30;;;;;;5092228;28;20418;-64
2022/09/05 05:09:24;;;;;;;5.07;4.57;;;17.80;80.30;;;;;;5081248;28;20963;-64
2022/09/05 05:11:56;;;;;;;5.68;5.18;;;17.80;80.50;;;;;;5090880;28;20875;-64
2022/09/05 05:14:28;;;;;;;7.63;6.78;;;17.80;80.50;;;;;;5071284;28;20442;-64
2022/09/05 05:17:01;;;;;;;8.20;7.10;;;17.80;80.20;;;;;;5091660;28;20418;-64
2022/09/05 05:19:31;;;;;;;9.75;7.13;;;17.80;81.00;;;;;;5087911;28;20440;-65
2022/09/05 05:22:03;;;;;;;7.20;6.45;;;17.90;79.70;;;;;;5085248;28;20899;-64
2022/09/05 05:24:33;;;;;;;7.00;6.30;;;17.80;79.70;;;;;;5082822;28;20493;-66
2022/09/05 05:27:08;;;;;;;7.13;6.43;;;17.80;79.50;;;;;;5082877;28;20432;-66
2022/09/05 05:29:44;;;;;;;8.10;7.13;;;17.80;79.90;;;;;;5088391;28;20562;-65
2022/09/05 05:32:21;;;;;;;6.55;5.95;;;17.80;79.90;;;;;;5081640;28;20415;-66
2022/09/05 05:34:52;;;;;;;8.13;5.60;;;17.80;79.70;;;;;;5080170;28;20430;-67
2022/09/05 05:37:23;;;;;;;6.88;5.55;;;17.80;79.80;;;;;;5089866;28;20426;-67
2022/09/05 05:39:58;;;;;;;7.90;5.60;;;17.80;79.70;;;;;;5092951;28;20417;-66
2022/09/05 05:42:25;;;;;;;6.00;5.40;;;17.90;79.50;;;;;;5091816;28;20418;-67
2022/09/05 05:44:54;;;;;;;5.30;4.00;;;17.90;79.60;;;;;;5088328;28;20927;-68
2022/09/05 05:47:26;;;;;;;4.53;4.13;;;18.00;79.10;;;;;;5089475;28;20414;-67
2022/09/05 05:50:03;;;;;;;5.00;4.60;;;18.00;78.80;;;;;;5086850;28;20429;-67
2022/09/05 05:53:05;;;;;;;5.10;4.07;;;18.00;78.70;;;;;;5073429;28;20966;-67
2022/09/05 05:55:56;;;;;;;4.32;3.92;;;18.00;78.50;;;;;;5082667;28;20437;-66
2022/09/05 05:58:46;;;;;;;4.80;4.40;;;18.10;78.40;;;;;;5084032;28;20445;-68
2022/09/05 06:01:49;;;;;;;5.90;4.70;;;18.10;78.20;;;;;;5085505;28;20417;-68
2022/09/05 06:05:10;;;;;;;5.30;4.80;;;18.10;78.40;;;;;;5081867;28;20402;-69
2022/09/05 06:07:51;;;;;;;4.70;4.20;;;18.10;78.00;;;;;;5081862;28;20433;-66
2022/09/05 06:10:56;;;;;;;4.70;4.40;;;18.20;77.80;;;;;;5086104;28;20922;-68
2022/09/05 06:13:46;;;;;;;5.00;4.50;;;18.30;77.40;;;;;;5079824;28;20973;-67
2022/09/05 06:16:50;;;;;;;4.63;4.10;;;18.40;77.20;;;;;;5054230;28;20425;-68
2022/09/05 06:20:01;;;;;;;4.05;3.65;;;18.50;76.50;;;;;;5084963;28;20416;-68
2022/09/05 06:23:05;;;;;;;3.90;3.60;;;18.60;75.90;;;;;;5085639;28;20426;-67
2022/09/05 06:25:54;;;;;;;4.60;4.20;;;18.70;75.60;;;;;;5072372;28;20420;-67
2022/09/05 06:28:29;;;;;;;4.80;4.40;;;18.80;75.00;;;;;;5085930;28;20922;-68
2022/09/05 06:31:18;;;;;;;5.05;4.55;;;18.90;74.40;;;;;;5077898;28;20419;-67
2022/09/05 06:33:52;;;;;;;5.15;4.75;;;19.00;73.90;;;;;;5091028;28;20428;-68
2022/09/05 06:36:37;;;;;;;4.60;4.20;;;19.00;73.90;;;;;;5077175;28;20414;-68
2022/09/05 06:39:12;;;;;;;5.05;4.65;;;19.00;73.80;;;;;;5088440;28;20418;-67
2022/09/05 06:41:52;;;;;;;4.93;4.53;;;19.00;73.40;;;;;;5080731;28;20453;-68
2022/09/05 06:44:47;;;;;;;5.10;4.70;;;19.10;73.10;;;;;;5087878;28;20441;-67
2022/09/05 06:47:18;;;;;;;5.32;4.82;;;19.20;72.80;;;;;;5088132;28;20558;-68
2022/09/05 06:50:10;;;;;;;5.03;4.55;;;19.30;72.40;;;;;;5090485;28;20475;-68
2022/09/05 06:53:09;;;;;;;5.13;4.63;;;19.30;72.40;;;;;;5082733;28;20483;-68
2022/09/05 06:56:10;;;;;;;4.80;4.30;;;19.40;71.80;;;;;;5089009;28;20437;-67
2022/09/05 06:59:18;;;;;;;4.28;3.85;;;19.50;71.70;;;;;;5085410;28;20440;-67
2022/09/05 07:01:49;;;;;;;4.25;3.85;;;19.70;71.00;;;;;;5089666;28;20523;-67
2022/09/05 07:04:30;;;;;;;4.30;3.90;;;19.90;70.20;;;;;;5087850;28;20459;-67
2022/09/05 07:07:06;;;;;;;3.83;3.53;;;20.00;70.00;;;;;;5082163;28;20439;-66
2022/09/05 07:09:48;;;;;;;3.70;3.40;;;20.10;69.10;;;;;;5081097;28;20418;-68
2022/09/05 07:12:21;;;;;;;3.60;3.00;;;20.20;68.10;;;;;;5085975;28;20418;-68
2022/09/05 07:15:05;;;;;;;3.50;3.20;;;20.30;67.80;;;;;;5079926;28;20420;-67
2022/09/05 07:17:42;;;;;;;3.55;3.03;;;20.40;67.90;;;;;;5076734;28;21014;-67
2022/09/05 07:20:20;;;;;;;3.90;2.92;;;20.50;67.50;;;;;;5085432;28;20429;-68
2022/09/05 07:22:54;;;;;;;3.33;2.90;;;20.80;66.30;;;;;;5074525;28;20439;-68
2022/09/05 07:25:27;;;;;;;5.63;3.17;;;20.90;65.60;;;;;;5083403;28;20499;-68
2022/09/05 07:27:59;;;;;;;4.10;3.20;;;21.00;65.50;;;;;;5087000;28;20975;-67
2022/09/05 07:30:27;;;;;;;4.25;3.20;;;21.10;65.40;;;;;;5086674;28;20429;-67
2022/09/05 07:32:56;;;;;;;4.50;2.95;;;21.20;65.20;;;;;;5083261;28;20509;-67
2022/09/05 07:35:28;;;;;;;3.60;3.17;;;21.40;64.30;;;;;;5080187;28;20552;-69
2022/09/05 07:38:02;;;;;;;4.40;2.83;;;21.60;63.80;;;;;;5076932;28;20431;-68
2022/09/05 07:40:32;;;;;;;3.58;2.83;;;21.80;63.40;;;;;;5079827;28;20436;-67
2022/09/05 07:43:04;;;;;;;3.05;2.50;;;22.10;61.30;;;;;;5077891;28;20854;-69
2022/09/05 07:45:32;;;;;;;5.28;2.90;;;22.20;60.80;;;;;;5081881;28;20840;-68
2022/09/05 07:48:03;;;;;;;3.37;2.50;;;22.40;60.40;;;;;;5082048;28;20423;-68
2022/09/05 07:50:31;;;;;;;2.60;2.40;;;22.60;60.20;;;;;;5084325;28;20447;-68
2022/09/05 07:53:01;;;;;;;3.10;2.60;;;22.70;58.70;;;;;;5082839;28;20470;-67
2022/09/05 07:55:33;;;;;;;3.78;2.40;;;22.80;58.30;;;;;;5073080;28;20487;-67
2022/09/05 07:58:07;;;;;;;2.65;2.45;;;23.00;58.10;;;;;;5084735;28;20505;-68
2022/09/05 08:00:35;;;;;;;2.40;2.20;;;23.10;57.50;;;;;;5088440;28;20460;-69
2022/09/05 08:03:10;;;;;;;2.40;2.20;;;23.40;56.90;;;;;;5089056;28;20436;-68
2022/09/05 08:05:41;;;;;;;2.30;1.90;;;23.60;56.30;;;;;;5080802;28;20431;-67
2022/09/05 08:08:11;;;;;;;2.47;2.25;;;23.60;55.80;;;;;;5083929;28;20760;-68
2022/09/05 08:10:43;;;;;;;2.42;2.10;;;23.70;55.20;;;;;;5088458;28;20508;-67
2022/09/05 08:13:15;;;;;;;2.50;2.30;;;23.80;54.70;;;;;;5088223;28;20416;-67
2022/09/05 08:15:46;;;;;;;4.07;2.17;;;23.90;54.50;;;;;;5090439;28;20433;-76
2022/09/05 08:18:18;;;;;;;3.00;2.50;;;24.00;54.10;;;;;;5088642;28;20923;-76
2022/09/05 08:20:49;;;;;;;2.28;2.00;;;24.20;53.30;;;;;;5077746;28;20427;-77
2022/09/05 08:23:32;;;;;;;3.65;2.20;;;24.20;53.60;;;;;;5087965;28;20414;-79
2022/09/05 08:26:05;;;;;;;2.80;2.20;;;24.50;53.10;;;;;;5085360;28;20414;-73
2022/09/05 08:28:43;;;;;;;3.20;2.10;;;24.80;52.00;;;;;;5080887;28;20426;-75
2022/09/05 08:31:14;;;;;;;5.05;2.25;;;25.00;51.10;;;;;;5086120;28;20425;-74
2022/09/05 08:33:43;;;;;;;3.13;2.00;;;25.30;50.60;;;;;;5082055;28;20438;-74
2022/09/05 08:36:20;;;;;;;2.72;1.90;;;25.60;49.60;;;;;;5077932;28;20482;-74
2022/09/05 08:38:48;;;;;;;2.37;1.97;;;25.70;49.50;;;;;;5087993;28;20418;-74
2022/09/05 08:41:21;;;;;;;2.10;1.90;;;25.80;48.80;;;;;;5068989;28;20484;-74
2022/09/05 08:43:59;;;;;;;3.30;1.80;;;26.00;48.40;;;;;;5101290;28;20415;-74
2022/09/05 08:46:31;;;;;;;3.80;1.90;;;26.40;47.30;;;;;;5112577;28;20418;-70
2022/09/05 08:49:26;;;;;;;2.80;1.90;;;26.70;46.90;;;;;;5101265;28;20436;-68
2022/09/05 08:51:56;;;;;;;2.47;2.00;;;26.90;45.90;;;;;;5082369;28;20421;-68
2022/09/05 08:54:32;;;;;;;2.33;1.83;;;27.00;45.70;;;;;;5082146;28;20555;-70
2022/09/05 08:57:07;;;;;;;2.70;2.00;;;27.30;45.20;;;;;;5088940;28;20424;-70
2022/09/05 08:59:43;;;;;;;3.90;1.77;;;27.50;44.50;;;;;;5081353;28;20435;-70
2022/09/05 09:02:38;;;;;;;3.40;2.00;;;27.60;43.80;;;;;;5078163;28;20905;-70
2022/09/05 09:05:12;;;;;;;2.15;1.60;;;27.80;43.20;;;;;;5072894;28;20420;-71
2022/09/05 09:07:43;;;;;;;1.50;1.40;;;27.80;42.70;;;;;;5083153;28;20416;-70
2022/09/05 09:10:27;;;;;;;2.10;1.60;;;27.80;42.00;;;;;;5086211;28;20444;-69
2022/09/05 09:13:08;;;;;;;3.00;1.60;;;27.70;42.40;;;;;;5078828;28;20893;-70
2022/09/05 09:15:39;;;;;;;2.85;1.67;;;27.60;42.60;;;;;;5087510;28;20421;-70
2022/09/05 09:18:13;;;;;;;1.70;1.60;;;27.80;43.00;;;;;;5094285;28;20433;-71
2022/09/05 09:20:52;;;;;;;2.00;1.60;;;27.80;43.00;;;;;;5076328;28;20415;-71
2022/09/05 09:23:42;;;;;;;2.10;1.50;;;28.00;41.40;;;;;;5072779;28;20461;-70
2022/09/05 09:26:14;;;;;;;1.95;1.38;;;28.40;40.70;;;;;;5084026;28;20421;-70
2022/09/05 09:28:52;;;;;;;2.80;1.70;;;28.50;40.60;;;;;;5082296;28;20524;-70
2022/09/05 09:31:34;;;;;;;1.77;1.50;;;28.80;40.20;;;;;;5074925;28;20424;-71
2022/09/05 09:34:31;;;;;;;2.22;1.50;;;29.20;39.20;;;;;;5076333;28;20438;-71
2022/09/05 09:37:26;;;;;;;1.70;1.60;;;29.20;38.40;;;;;;5079517;28;20585;-70
2022/09/05 09:40:18;;;;;;;1.57;1.40;;;29.30;36.90;;;;;;5073650;28;20422;-68
2022/09/05 09:42:50;;;;;;;1.80;1.20;;;29.30;36.60;;;;;;5085723;28;20908;-71
2022/09/05 09:45:30;;;;;;;3.10;1.30;;;29.50;35.90;;;;;;5085830;28;20444;-70
2022/09/05 09:48:51;;;;;;;1.20;1.10;;;29.70;35.60;;;;;;5099581;22;20460;-71
2022/09/05 09:51:56;;;;;;;1.45;1.20;;;30.10;34.50;;;;;;5056360;28;20415;-71
2022/09/05 09:55:00;;;;;;;1.30;1.10;;;30.60;33.70;;;;;;5038595;28;20485;-71
2022/09/05 09:57:52;;;;;;;1.60;0.90;;;30.70;32.80;;;;;;5052296;28;20440;-69
2022/09/05 10:00:21;;;;;;;1.52;0.93;;;30.80;33.10;;;;;;5065075;28;20424;-71
2022/09/05 10:03:25;;;;;;;1.95;0.90;;;31.00;30.30;;;;;;5064415;28;20459;-70
2022/09/05 10:06:24;;;;;;;1.60;0.90;;;31.10;30.40;;;;;;5050788;28;20418;-69
2022/09/05 10:09:10;;;;;;;0.85;0.85;;;31.40;29.50;;;;;;5042492;28;20431;-70
2022/09/05 10:11:39;;;;;;;1.35;0.90;;;31.70;29.10;;;;;;5057891;28;21061;-70
2022/09/05 10:14:42;;;;;;;1.75;0.90;;;31.70;29.10;;;;;;5069663;28;20426;-72
2022/09/05 10:17:28;;;;;;;1.27;1.15;;;31.80;29.40;;;;;;5047464;28;20917;-69
2022/09/05 10:20:22;;;;;;;1.10;1.00;;;31.80;29.30;;;;;;5064388;28;20441;-71
2022/09/05 10:23:07;;;;;;;2.00;1.20;;;31.80;29.20;;;;;;5051406;28;20467;-71
2022/09/05 10:26:21;;;;;;;3.20;1.23;;;32.10;29.20;;;;;;5053943;28;20452;-70
2022/09/05 10:29:01;;;;;;;1.40;1.30;;;32.40;28.60;;;;;;5059052;28;20411;-71
2022/09/05 10:31:48;;;;;;;1.17;0.90;;;32.40;27.90;;;;;;5064905;28;20821;-70
2022/09/05 10:34:18;;;;;;;1.92;1.50;;;32.20;27.40;;;;;;5062051;28;20487;-71
2022/09/05 10:36:53;;;;;;;1.00;1.00;;;32.10;27.90;;;;;;5056980;28;20480;-70
2022/09/05 10:39:25;;;;;;;2.70;1.20;;;32.20;28.40;;;;;;5065103;28;20419;-70
2022/09/05 10:41:57;;;;;;;1.20;1.00;;;32.40;27.80;;;;;;5064802;28;20794;-70
2022/09/05 10:44:34;;;;;;;2.50;1.00;;;32.60;27.60;;;;;;5063053;28;20530;-71
2022/09/05 10:47:16;;;;;;;4.60;1.30;;;32.80;27.60;;;;;;5065063;28;20416;-71
2022/09/05 10:49:44;;;;;;;1.50;1.10;;;33.10;27.30;;;;;;5059181;28;20431;-71
2022/09/05 10:52:19;;;;;;;1.02;0.93;;;33.30;27.10;;;;;;5056724;28;20702;-71
2022/09/05 10:55:09;;;;;;;1.35;1.10;;;33.50;27.00;;;;;;5057619;28;20415;-70
2022/09/05 10:57:43;;;;;;;1.50;1.30;;;33.50;26.50;;;;;;5057384;28;20429;-70
2022/09/05 11:00:32;;;;;;;1.30;1.13;;;33.50;26.80;;;;;;5063502;28;20514;-71
2022/09/05 11:03:00;;;;;;;1.52;1.10;;;33.70;26.70;;;;;;5064159;28;20555;-69
2022/09/05 11:05:30;;;;;;;1.10;0.90;;;33.80;26.50;;;;;;5054322;28;20901;-71
2022/09/05 11:08:07;;;;;;;0.80;0.80;;;33.90;26.50;;;;;;5060304;28;20426;-71
2022/09/05 11:10:37;;;;;;;1.60;1.20;;;33.80;26.20;;;;;;5063262;28;21113;-71
2022/09/05 11:13:15;;;;;;;1.88;0.90;;;33.90;26.00;;;;;;5054759;28;20423;-71
2022/09/05 11:15:58;;;;;;;0.93;0.80;;;33.70;25.70;;;;;;5055785;28;20549;-70
2022/09/05 11:18:43;;;;;;;1.58;1.00;;;33.40;25.90;;;;;;5053961;28;20442;-71
2022/09/05 11:21:19;;;;;;;0.70;0.70;;;33.50;26.20;;;;;;5059005;28;20431;-70
2022/09/05 11:23:54;;;;;;;1.30;1.10;;;33.80;25.70;;;;;;5052064;28;20429;-71
2022/09/05 11:26:31;;;;;;;1.08;0.88;;;33.90;25.80;;;;;;5063312;28;20420;-70
2022/09/05 11:29:04;;;;;;;1.00;1.00;;;34.20;25.60;;;;;;5064332;28;20430;-71
2022/09/05 11:31:44;;;;;;;0.90;0.80;;;34.30;25.30;;;;;;5052972;28;20429;-69
2022/09/05 11:34:45;;;;;;;2.22;0.90;;;34.40;25.10;;;;;;5053367;28;20415;-71
2022/09/05 11:37:24;;;;;;;0.90;0.90;;;34.40;25.20;;;;;;5049200;28;21089;-69
2022/09/05 11:40:19;;;;;;;0.77;0.77;;;34.30;25.20;;;;;;5056273;28;20434;-71
2022/09/05 11:42:58;;;;;;;1.20;0.70;;;34.30;25.70;;;;;;5051491;28;20425;-71
2022/09/05 11:45:50;;;;;;;1.58;0.90;;;34.30;25.50;;;;;;5053761;28;20458;-68
2022/09/05 11:48:46;;;;;;;1.20;0.80;;;34.40;24.80;;;;;;5055439;28;20429;-71
2022/09/05 11:51:46;;;;;;;1.50;0.80;;;34.30;24.80;;;;;;5049526;28;20433;-76
2022/09/05 11:54:46;;;;;;;1.20;0.80;;;34.50;24.10;;;;;;5057823;28;20466;-76
2022/09/05 11:57:30;;;;;;;1.10;0.70;;;34.60;24.60;;;;;;5059443;28;20433;-75
2022/09/05 12:00:08;;;;;;;0.90;0.63;;;34.80;24.00;;;;;;5061363;28;20431;-75
2022/09/05 12:02:54;;;;;;;0.70;0.70;;;34.80;24.30;;;;;;5055266;28;21017;-76
2022/09/05 12:05:51;;;;;;;0.90;0.70;;;34.90;23.90;;;;;;5052624;28;20439;-75
2022/09/05 12:08:29;;;;;;;1.45;0.68;;;35.20;23.50;;;;;;5056365;28;20469;-75
2022/09/05 12:11:06;;;;;;;1.17;1.00;;;35.10;23.70;;;;;;5053194;28;20431;-75
2022/09/05 12:13:47;;;;;;;0.95;0.85;;;35.20;23.60;;;;;;5050064;28;20451;-75
2022/09/05 12:16:43;;;;;;;2.00;0.70;;;35.40;23.70;;;;;;5052911;28;20464;-76
2022/09/05 12:19:21;;;;;;;0.90;0.70;;;35.50;23.20;;;;;;5059534;28;20479;-75
2022/09/05 12:22:12;;;;;;;1.20;0.77;;;35.70;23.40;;;;;;5050329;28;20429;-75
2022/09/05 12:24:53;;;;;;;1.02;0.60;;;35.90;23.30;;;;;;5057870;28;20448;-74
2022/09/05 12:27:24;;;;;;;2.13;0.75;;;36.10;22.60;;;;;;5051195;28;20792;-75
2022/09/05 12:29:56;;;;;;;2.53;0.90;;;36.20;22.30;;;;;;5057128;28;20512;-75
2022/09/05 12:32:24;;;;;;;1.10;0.90;;;36.10;22.90;;;;;;5053409;28;20457;-75
2022/09/05 12:34:54;;;;;;;0.85;0.80;;;35.80;22.80;;;;;;5054921;28;20524;-75
2022/09/05 12:37:28;;;;;;;0.80;0.80;;;35.50;22.60;;;;;;5059755;28;20534;-75
2022/09/05 12:39:59;;;;;;;1.90;0.70;;;35.30;22.80;;;;;;5062469;28;20781;-75
2022/09/05 12:42:39;;;;;;;1.40;0.90;;;35.50;23.00;;;;;;5052558;28;21058;-75
2022/09/05 12:45:14;;;;;;;0.70;0.63;;;35.60;22.70;;;;;;5051648;28;21108;-75
2022/09/05 12:47:56;;;;;;;1.00;0.60;;;35.70;22.30;;;;;;5055405;28;20437;-75
2022/09/05 12:50:32;;;;;;;0.90;0.80;;;35.70;22.50;;;;;;5057301;28;20489;-75
2022/09/05 12:53:04;;;;;;;0.70;0.70;;;35.80;22.30;;;;;;5054650;28;20435;-75
2022/09/05 12:55:35;;;;;;;0.90;0.90;;;36.00;22.60;;;;;;5051583;28;20456;-75
2022/09/05 12:58:11;;;;;;;1.52;0.70;;;36.20;22.70;;;;;;5048854;28;20429;-75
2022/09/05 13:00:44;;;;;;;1.40;0.80;;;36.30;22.40;;;;;;5049877;28;20798;-75
2022/09/05 13:03:18;;;;;;;1.30;0.80;;;36.60;22.10;;;;;;5051223;28;20526;-75
2022/09/05 13:05:51;;;;;;;0.60;0.60;;;36.60;22.50;;;;;;5058471;28;20431;-75
2022/09/05 13:08:21;;;;;;;0.70;0.70;;;36.80;22.20;;;;;;5062283;28;20920;-75
2022/09/05 13:10:52;;;;;;;0.90;0.60;;;37.00;22.10;;;;;;5061808;28;20458;-75
2022/09/05 13:13:26;;;;;;;1.10;0.70;;;37.00;21.90;;;;;;5057926;28;20443;-75
2022/09/05 13:15:55;;;;;;;1.20;0.70;;;36.70;22.20;;;;;;5057437;28;20498;-75
2022/09/05 13:18:26;;;;;;;1.80;0.80;;;36.30;21.50;;;;;;5060166;28;20437;-75
2022/09/05 13:21:03;;;;;;;1.10;0.70;;;36.10;22.10;;;;;;5055926;28;20421;-75
2022/09/05 13:23:36;;;;;;;1.10;0.80;;;36.10;21.70;;;;;;5065874;28;20510;-74
2022/09/05 13:26:10;;;;;;;0.80;0.80;;;36.10;22.10;;;;;;5059352;28;20482;-72
2022/09/05 13:28:49;;;;;;;0.70;0.70;;;36.20;22.10;;;;;;5060822;28;20445;-73
2022/09/05 13:31:57;;;;;;;0.90;0.80;;;36.20;22.30;;;;;;5066197;28;20506;-73
2022/09/05 13:34:28;;;;;;;1.30;0.73;;;36.30;22.00;;;;;;5061172;28;20543;-74
2022/09/05 13:37:02;;;;;;;1.17;0.60;;;36.60;21.90;;;;;;5062428;28;20423;-74
2022/09/05 13:39:40;;;;;;;1.20;0.80;;;36.70;21.60;;;;;;5057545;28;20452;-74
2022/09/05 13:42:17;;;;;;;2.60;0.68;;;36.60;21.40;;;;;;5062619;28;20844;-74
2022/09/05 13:44:45;;;;;;;0.80;0.80;;;36.70;22.10;;;;;;5064115;28;20623;-74
2022/09/05 13:47:21;;;;;;;1.65;0.90;;;36.60;21.10;;;;;;5062688;28;20417;-74
2022/09/05 13:49:56;;;;;;;1.52;0.73;;;36.50;21.10;;;;;;5059062;28;20481;-74
2022/09/05 13:52:30;;;;;;;1.10;0.70;;;36.50;21.40;;;;;;5061824;28;20436;-74
2022/09/05 13:55:20;;;;;;;0.95;0.68;;;36.40;21.20;;;;;;5055686;28;20898;-74
2022/09/05 13:57:53;;;;;;;1.02;0.70;;;36.10;21.30;;;;;;5061395;28;20432;-74